Time;durP1;ratioP1;P1;durP2;ratioP2;P2;SDS_P1;SDS_P2;PMS_P1;PMS_P2;Temp;Humidity;BMP_temperature;BMP_pressure;BME280_temperature;BME280_humidity;BME280_pressure;Samples;Min_cycle;Max_cycle;Signal;HPM_P1;HPM_P2
2024/02/12 00:00:18;;;;;;;23.10;8.10;;;;;;;-2.70;68.96;99314.91;4981304;28;20100;-49
2024/02/12 00:03:04;;;;;;;21.08;8.00;;;;;;;-2.69;68.74;99309.00;4982816;28;20034;-48
2024/02/12 00:05:34;;;;;;;25.60;8.95;;;;;;;-2.81;69.19;99282.53;4994715;28;20045;-53
2024/02/12 00:08:07;;;;;;;19.33;6.85;;;;;;;-2.62;69.05;99298.03;4995086;28;20046;-48
2024/02/12 00:10:34;;;;;;;23.60;7.78;;;;;;;-2.58;68.95;99297.28;4976860;28;20093;-57
2024/02/12 00:13:01;;;;;;;22.65;8.18;;;;;;;-2.59;68.71;99294.69;4990803;28;20046;-50
2024/02/12 00:15:27;;;;;;;20.92;8.45;;;;;;;-2.58;69.24;99293.88;4997533;28;20042;-51
2024/02/12 00:17:57;;;;;;;19.27;6.68;;;;;;;-2.78;68.84;99254.63;4978598;28;20404;-52
2024/02/12 00:20:23;;;;;;;19.70;7.75;;;;;;;-2.61;68.99;99294.66;4990317;28;20537;-50
2024/02/12 00:22:49;;;;;;;20.85;8.07;;;;;;;-2.84;69.13;99252.84;4996978;28;20041;-52
2024/02/12 00:25:16;;;;;;;16.70;7.63;;;;;;;-2.63;69.06;99281.09;4994519;28;20434;-49
2024/02/12 00:27:42;;;;;;;19.48;7.18;;;;;;;-2.63;69.32;99280.22;4976616;28;20046;-47
2024/02/12 00:30:10;;;;;;;16.50;6.25;;;;;;;-2.68;69.57;99281.88;4991308;28;20050;-49
2024/02/12 00:32:37;;;;;;;22.23;7.85;;;;;;;-2.94;69.67;99256.13;4997857;28;20042;-49
2024/02/12 00:35:05;;;;;;;14.55;5.10;;;;;;;-3.16;69.63;99224.50;4992176;28;20050;-50
2024/02/12 00:37:34;;;;;;;19.33;6.45;;;;;;;-2.78;70.12;99285.16;4991506;28;20044;-48
2024/02/12 00:40:09;;;;;;;18.48;6.97;;;;;;;-2.80;70.52;99285.13;4994234;28;20498;-49
2024/02/12 00:42:38;;;;;;;13.13;5.05;;;;;;;-2.76;70.38;99269.03;5001379;28;20076;-47
2024/02/12 00:45:10;;;;;;;21.67;8.07;;;;;;;-2.71;70.42;99269.97;4995905;28;20133;-47
2024/02/12 00:47:39;;;;;;;16.80;7.60;;;;;;;-2.76;70.49;99230.03;4996460;28;20038;-46
2024/02/12 00:50:07;;;;;;;25.60;8.23;;;;;;;-2.51;70.23;99270.19;4994085;28;20046;-51
2024/02/12 00:52:35;;;;;;;18.83;6.93;;;;;;;-2.78;70.20;99245.31;5003346;28;20046;-49
2024/02/12 00:55:03;;;;;;;23.10;6.85;;;;;;;-2.64;70.63;99266.66;4980934;28;20053;-49
2024/02/12 00:57:33;;;;;;;19.13;6.85;;;;;;;-2.87;70.53;99226.50;5002288;28;20096;-52
2024/02/12 01:00:06;;;;;;;19.67;6.43;;;;;;;-2.85;70.68;99240.13;4980877;28;20132;-52
2024/02/12 01:02:36;;;;;;;16.30;6.95;;;;;;;-2.75;71.08;99260.59;4998417;28;20041;-49
2024/02/12 01:05:02;;;;;;;19.75;7.53;;;;;;;-2.95;71.40;99221.34;4995282;28;20048;-47
2024/02/12 01:07:32;;;;;;;23.40;7.90;;;;;;;-2.68;71.39;99257.28;4997319;28;20046;-52
2024/02/12 01:09:57;;;;;;;21.65;7.45;;;;;;;-2.60;71.25;99263.31;4981941;28;20584;-48
2024/02/12 01:12:23;;;;;;;18.58;6.70;;;;;;;-2.50;71.14;99269.34;5000652;28;20034;-52
2024/02/12 01:14:50;;;;;;;20.38;7.90;;;;;;;-2.73;71.07;99219.91;4979949;28;20038;-55
2024/02/12 01:17:16;;;;;;;20.77;8.23;;;;;;;-2.37;70.93;99258.47;5003119;28;20555;-48
2024/02/12 01:19:44;;;;;;;18.90;7.00;;;;;;;-2.54;70.88;99242.16;4980548;28;20042;-50
2024/02/12 01:22:09;;;;;;;21.10;6.88;;;;;;;-2.59;70.87;99226.84;4979953;28;20050;-51
2024/02/12 01:24:43;;;;;;;17.13;6.40;;;;;;;-2.70;71.25;99230.13;4998273;28;20096;-51
2024/02/12 01:27:11;;;;;;;24.80;9.45;;;;;;;-2.56;71.39;99252.31;4995041;28;20042;-52
2024/02/12 01:29:39;;;;;;;20.75;6.28;;;;;;;-2.47;71.29;99255.81;4978617;28;20090;-53
2024/02/12 01:32:06;;;;;;;27.08;8.07;;;;;;;-2.48;71.34;99251.56;4997127;28;20042;-46
2024/02/12 01:34:34;;;;;;;20.77;7.22;;;;;;;-2.43;71.64;99225.31;4994823;28;20038;-50
2024/02/12 01:37:01;;;;;;;20.05;7.22;;;;;;;-2.17;71.39;99254.44;4998095;28;20042;-51
2024/02/12 01:39:27;;;;;;;24.88;7.25;;;;;;;-2.23;71.25;99253.50;4995818;28;20050;-51
2024/02/12 01:41:53;;;;;;;20.10;7.90;;;;;;;-2.27;71.25;99233.97;4981324;28;20580;-48
2024/02/12 01:44:18;;;;;;;23.75;7.85;;;;;;;-2.27;71.28;99239.06;5003450;28;20567;-47
2024/02/12 01:46:48;;;;;;;18.52;7.25;;;;;;;-2.23;71.32;99236.53;4995880;28;20506;-50
2024/02/12 01:49:17;;;;;;;15.68;6.22;;;;;;;-2.29;71.39;99221.19;4996775;28;20042;-46
2024/02/12 01:51:44;;;;;;;22.60;6.93;;;;;;;-2.33;71.57;99238.97;4991251;28;20430;-46
2024/02/12 01:54:13;;;;;;;20.02;7.35;;;;;;;-2.40;71.73;99232.97;4996771;28;20108;-49
2024/02/12 01:56:39;;;;;;;20.95;7.88;;;;;;;-2.42;72.11;99224.50;4978783;28;20046;-53
2024/02/12 01:59:07;;;;;;;24.13;8.30;;;;;;;-2.39;71.93;99223.66;4973429;28;20041;-52
2024/02/12 02:01:33;;;;;;;24.48;7.63;;;;;;;-2.31;71.94;99217.81;4984761;28;20061;-52
2024/02/12 02:03:58;;;;;;;18.45;7.82;;;;;;;-2.17;71.78;99218.78;4996345;28;20583;-47
2024/02/12 02:06:24;;;;;;;18.25;6.25;;;;;;;-2.15;71.55;99219.63;4999482;28;20034;-54
2024/02/12 02:08:50;;;;;;;22.25;8.35;;;;;;;-2.29;71.89;99223.75;5002382;28;20548;-53
2024/02/12 02:11:16;;;;;;;23.40;6.97;;;;;;;-2.44;72.04;99184.56;5000153;28;20628;-49
2024/02/12 02:13:44;;;;;;;16.98;6.78;;;;;;;-2.19;71.97;99211.94;4979360;28;20052;-49
2024/02/12 02:16:32;;;;;;;20.13;7.05;;;;;;;-2.25;71.80;99217.84;4994577;28;20635;-49
2024/02/12 02:18:58;;;;;;;27.52;8.73;;;;;;;-2.41;72.58;99213.47;4982415;28;20533;-48
2024/02/12 02:21:44;;;;;;;19.52;7.07;;;;;;;-2.37;72.86;99211.81;4991834;28;20537;-55
2024/02/12 02:24:15;;;;;;;21.85;8.00;;;;;;;-2.35;72.76;99208.41;4993519;28;20047;-49
2024/02/12 02:26:40;;;;;;;22.92;8.35;;;;;;;-2.22;72.86;99196.66;4980989;28;20038;-49
2024/02/12 02:29:09;;;;;;;21.92;7.57;;;;;;;-2.05;72.65;99202.75;5000246;28;20042;-51
2024/02/12 02:31:35;;;;;;;19.98;7.38;;;;;;;-2.18;72.59;99200.94;5000673;28;20042;-49
2024/02/12 02:34:02;;;;;;;17.35;7.05;;;;;;;-2.23;72.79;99198.34;4993448;28;20068;-47
2024/02/12 02:36:28;;;;;;;17.80;7.72;;;;;;;-2.33;73.03;99193.16;4998891;28;20041;-51
2024/02/12 02:38:54;;;;;;;22.92;7.43;;;;;;;-2.18;73.31;99201.78;4997412;28;20041;-48
2024/02/12 02:41:21;;;;;;;20.35;7.88;;;;;;;-2.25;73.01;99196.66;4979121;28;20065;-48
2024/02/12 02:43:48;;;;;;;24.60;8.30;;;;;;;-2.29;73.48;99190.66;4996647;28;20155;-51
2024/02/12 02:46:26;;;;;;;15.80;6.15;;;;;;;-2.46;73.21;99145.56;4999681;28;20045;-46
2024/02/12 02:48:55;;;;;;;18.27;6.10;;;;;;;-2.37;73.50;99182.13;4991112;28;20156;-51
2024/02/12 02:51:29;;;;;;;23.40;6.40;;;;;;;-2.45;74.04;99185.41;4977757;28;20034;-52
2024/02/12 02:53:55;;;;;;;21.88;7.35;;;;;;;-2.65;74.46;99153.00;4993100;28;20072;-49
2024/02/12 02:56:22;;;;;;;21.48;7.20;;;;;;;-2.53;74.44;99148.88;4999370;28;20030;-47
2024/02/12 02:58:50;;;;;;;20.70;7.47;;;;;;;-2.26;74.49;99177.97;4994476;28;20049;-52
2024/02/12 03:01:19;;;;;;;23.25;7.90;;;;;;;-2.23;74.16;99177.97;4995685;28;20046;-48
2024/02/12 03:03:50;;;;;;;;;;;;;;;-2.14;74.02;99170.41;4996784;28;20741;-52
2024/02/12 03:06:17;;;;;;;19.33;7.40;;;;;;;-2.10;73.94;99180.63;4994531;28;20032;-54
2024/02/12 03:08:42;;;;;;;20.75;6.75;;;;;;;-2.28;73.84;99143.16;4998567;28;20034;-52
2024/02/12 03:11:08;;;;;;;23.33;7.03;;;;;;;-2.03;73.81;99165.41;4998530;28;20100;-48
2024/02/12 03:13:37;;;;;;;20.50;7.78;;;;;;;-2.05;73.65;99168.78;4999635;28;20046;-52
2024/02/12 03:16:03;;;;;;;21.85;8.00;;;;;;;-2.15;73.70;99150.06;4990776;28;20422;-47
2024/02/12 03:18:29;;;;;;;19.98;7.45;;;;;;;-2.05;73.58;99159.47;4998290;28;20069;-52
2024/02/12 03:20:56;;;;;;;23.92;7.15;;;;;;;-2.04;73.80;99157.78;4999437;28;20125;-48
2024/02/12 03:23:24;;;;;;;24.42;8.75;;;;;;;-1.96;73.60;99159.53;4978505;28;20137;-50
2024/02/12 03:25:50;;;;;;;24.02;8.25;;;;;;;-1.87;73.53;99146.84;4999488;28;20125;-48
2024/02/12 03:28:16;;;;;;;22.08;8.07;;;;;;;-1.99;73.35;99105.19;4974282;28;20046;-53
2024/02/12 03:30:44;;;;;;;24.75;8.52;;;;;;;-1.85;73.00;99136.69;4995284;28;20038;-53
2024/02/12 03:33:09;;;;;;;29.40;9.13;;;;;;;-1.86;72.90;99138.38;4998319;28;20144;-48
2024/02/12 03:35:35;;;;;;;25.88;8.85;;;;;;;-1.83;73.04;99143.47;5000536;28;20038;-51
2024/02/12 03:38:03;;;;;;;21.83;7.95;;;;;;;-1.73;72.95;99144.41;4993966;28;20052;-50
2024/02/12 03:40:32;;;;;;;22.00;8.45;;;;;;;-1.75;72.92;99134.19;4980238;28;20124;-51
2024/02/12 03:42:58;;;;;;;20.88;7.90;;;;;;;-1.97;72.84;99093.28;4999616;28;20034;-49
2024/02/12 03:45:24;;;;;;;26.58;8.98;;;;;;;-1.72;72.85;99128.25;4997991;28;20113;-52
2024/02/12 03:47:50;;;;;;;20.08;8.25;;;;;;;-2.07;72.66;99061.81;4995363;28;20533;-48
2024/02/12 04:01:23;;;;;;;24.90;8.55;;;;;;;-1.54;72.34;99113.06;4985301;28;20042;-49
2024/02/12 04:03:49;;;;;;;19.13;6.78;;;;;;;-1.54;72.24;99104.56;4971122;28;20096;-50
2024/02/12 04:06:16;;;;;;;21.52;8.63;;;;;;;-1.92;72.55;99077.19;5006840;28;20036;-50
2024/02/12 04:08:43;;;;;;;18.65;6.95;;;;;;;-1.74;72.91;99118.06;5006124;28;20038;-48
2024/02/12 04:11:12;;;;;;;22.95;8.07;;;;;;;-1.80;73.18;99114.63;4988467;28;20073;-50
2024/02/12 04:13:39;;;;;;;24.75;8.05;;;;;;;-1.74;73.09;99112.13;5003513;28;20050;-50
2024/02/12 04:16:09;;;;;;;26.02;8.30;;;;;;;-1.74;73.03;99114.66;5002586;28;20128;-47
2024/02/12 04:18:37;;;;;;;24.05;7.45;;;;;;;-1.60;73.19;99101.97;5009348;28;20200;-51
2024/02/12 04:21:08;;;;;;;23.15;8.15;;;;;;;-1.59;72.91;99096.91;5007440;28;20042;-53
2024/02/12 04:23:37;;;;;;;21.23;7.53;;;;;;;-2.07;72.85;99036.38;4989874;28;20040;-52
2024/02/12 04:26:08;;;;;;;21.92;6.88;;;;;;;-1.71;72.98;99090.03;4994365;28;20057;-50
2024/02/12 04:28:39;;;;;;;18.23;7.40;;;;;;;-1.77;73.17;99092.56;4973882;28;20046;-53
2024/02/12 04:31:07;;;;;;;25.52;8.32;;;;;;;-2.11;73.25;99021.91;4999135;28;20134;-53
2024/02/12 04:33:34;;;;;;;22.63;7.90;;;;;;;-2.07;73.03;99015.13;4996535;28;20103;-50
2024/02/12 04:36:01;;;;;;;19.63;8.13;;;;;;;-1.62;73.10;99094.31;4998767;28;20046;-48
2024/02/12 04:38:33;;;;;;;;;;;;;;;-1.55;72.95;99079.91;5003245;28;20111;-55
2024/02/12 04:40:59;;;;;;;22.17;7.10;;;;;;;-1.51;72.68;99089.28;5004903;28;19917;-51
2024/02/12 04:43:25;;;;;;;22.30;7.95;;;;;;;-1.73;72.52;99039.94;5005049;28;20077;-50
2024/02/12 04:45:52;;;;;;;17.98;6.97;;;;;;;-1.57;72.54;99089.28;4993703;28;20621;-52
2024/02/12 04:48:18;;;;;;;21.77;8.05;;;;;;;-1.90;72.48;99054.28;4956575;28;20042;-50
2024/02/12 04:50:45;;;;;;;22.17;8.00;;;;;;;-1.88;72.83;99075.50;5001921;28;20069;-54
2024/02/12 04:53:11;;;;;;;21.48;7.40;;;;;;;-1.75;73.25;99090.88;5007824;28;20073;-50
2024/02/12 04:55:37;;;;;;;19.35;7.05;;;;;;;-1.74;73.12;99079.84;4999955;28;20092;-49
2024/02/12 04:58:04;;;;;;;20.30;6.95;;;;;;;-1.74;73.37;99090.03;5003650;28;20037;-42
2024/02/12 05:00:30;;;;;;;20.50;8.02;;;;;;;-1.79;73.33;99094.25;4985045;28;20049;-44
2024/02/12 05:02:58;;;;;;;24.23;8.13;;;;;;;-1.80;73.39;99090.00;4996579;28;20072;-42
2024/02/12 05:05:24;;;;;;;22.10;7.97;;;;;;;-1.73;73.54;99081.53;5002508;28;20045;-43
2024/02/12 05:07:51;;;;;;;22.20;7.88;;;;;;;-1.61;73.57;99077.34;5005951;28;20091;-42
2024/02/12 05:10:17;;;;;;;20.85;7.85;;;;;;;-1.67;73.12;99072.25;5009302;28;20586;-43
2024/02/12 05:12:54;;;;;;;17.65;7.38;;;;;;;-1.58;73.51;99078.22;4976684;28;20509;-43
2024/02/12 05:15:20;;;;;;;21.95;7.85;;;;;;;-1.49;73.29;99074.84;5005543;28;20395;-43
2024/02/12 05:17:55;;;;;;;21.10;8.02;;;;;;;-1.70;73.29;99045.03;5000053;28;20080;-42
2024/02/12 05:23:09;;;;;;;17.95;6.78;;;;;;;-1.39;73.01;99069.78;4995464;28;20046;-43
2024/02/12 05:25:35;;;;;;;21.40;7.63;;;;;;;-1.54;73.04;99035.75;5009051;28;20041;-42
2024/02/12 05:28:02;;;;;;;21.05;7.55;;;;;;;-1.41;72.77;99070.63;4996009;28;20042;-44
2024/02/12 05:30:29;;;;;;;21.60;7.80;;;;;;;-1.76;73.13;99037.34;4997213;28;20049;-43
2024/02/12 05:32:55;;;;;;;22.55;7.97;;;;;;;-1.81;73.44;99034.78;5005093;28;20514;-43
2024/02/12 05:35:21;;;;;;;18.58;7.13;;;;;;;-1.53;73.24;99070.59;4975349;28;20072;-43
2024/02/12 05:37:47;;;;;;;23.33;8.32;;;;;;;-1.54;73.33;99064.63;4989275;28;20042;-42
2024/02/12 05:40:13;;;;;;;17.33;6.90;;;;;;;-1.41;73.59;99078.25;4974311;28;20597;-42
2024/02/12 05:42:39;;;;;;;23.08;8.43;;;;;;;-1.28;73.18;99074.94;4988489;28;20217;-42
2024/02/12 05:45:06;;;;;;;21.05;6.97;;;;;;;-1.51;72.96;99036.59;4995919;28;20053;-43
2024/02/12 05:47:36;;;;;;;17.75;7.53;;;;;;;-1.42;72.83;99063.84;4957099;28;20045;-42
2024/02/12 05:50:02;;;;;;;23.80;8.32;;;;;;;-1.43;73.19;99065.53;4996453;28;20080;-42
2024/02/12 05:52:33;;;;;;;21.88;8.20;;;;;;;-1.35;72.96;99074.03;4995706;28;20038;-44
2024/02/12 05:55:00;;;;;;;19.17;7.95;;;;;;;-1.43;73.30;99034.94;4994273;28;20702;-42
2024/02/12 05:57:26;;;;;;;24.67;8.00;;;;;;;-1.23;72.84;99046.88;4996995;28;20037;-49
2024/02/12 05:59:52;;;;;;;14.70;5.18;;;;;;;-1.13;72.48;99069.00;5002343;28;20073;-43
2024/02/12 06:02:18;;;;;;;16.52;7.32;;;;;;;-1.57;72.61;99028.09;5001610;28;20517;-45
2024/02/12 06:04:44;;;;;;;22.92;7.80;;;;;;;-1.41;73.08;99071.47;4993738;28;20075;-52
2024/02/12 06:07:10;;;;;;;26.23;8.15;;;;;;;-1.36;73.17;99071.50;5006930;28;20049;-53
2024/02/12 06:09:36;;;;;;;19.45;7.28;;;;;;;-1.28;72.95;99077.47;5007624;28;20053;-54
2024/02/12 06:12:04;;;;;;;21.50;7.88;;;;;;;-1.57;73.02;99039.13;4990882;28;20050;-55
2024/02/12 06:14:31;;;;;;;19.33;7.53;;;;;;;-1.30;73.18;99069.81;5008123;28;20041;-55
2024/02/12 06:16:57;;;;;;;20.70;7.95;;;;;;;-1.28;73.22;99057.06;4981021;28;20495;-54
2024/02/12 06:19:23;;;;;;;19.98;8.23;;;;;;;-1.20;73.32;99065.59;4979055;28;20045;-52
2024/02/12 06:21:49;;;;;;;22.88;8.05;;;;;;;-1.01;73.20;99052.03;4999717;28;20038;-54
2024/02/12 06:24:15;;;;;;;18.83;7.60;;;;;;;-1.14;72.85;99037.56;4993954;28;20073;-55
2024/02/12 06:26:44;;;;;;;19.55;7.57;;;;;;;-0.95;72.94;99057.16;5006421;28;20111;-53
2024/02/12 06:29:11;;;;;;;20.85;8.27;;;;;;;-0.81;73.05;99054.63;5001200;28;20438;-53
2024/02/12 06:31:41;;;;;;;17.95;6.63;;;;;;;-0.80;72.64;99052.91;4987212;28;20132;-49
2024/02/12 06:34:08;;;;;;;24.83;8.65;;;;;;;-0.78;73.10;99054.59;4992422;28;20057;-51
2024/02/12 06:36:33;;;;;;;20.30;8.35;;;;;;;-0.99;73.16;99019.72;4984475;28;20050;-50
2024/02/12 06:38:59;;;;;;;21.52;8.02;;;;;;;-0.73;73.13;99049.53;4988384;28;20049;-49
2024/02/12 06:41:27;;;;;;;19.52;8.02;;;;;;;-0.67;73.18;99052.06;4987930;28;20096;-54
2024/02/12 06:43:53;;;;;;;17.90;7.75;;;;;;;-1.39;73.19;98926.19;4988261;28;20038;-52
2024/02/12 06:46:19;;;;;;;22.02;8.93;;;;;;;-0.77;72.64;99028.25;5001493;28;20061;-48
2024/02/12 06:48:49;;;;;;;21.38;8.25;;;;;;;-0.59;72.65;99047.81;4988535;28;20069;-49
2024/02/12 06:51:15;;;;;;;24.65;7.80;;;;;;;-0.54;72.23;99041.00;4970393;28;20484;-52
2024/02/12 06:54:01;;;;;;;20.48;9.13;;;;;;;-0.93;72.16;99006.97;4988586;28;20057;-49
2024/02/12 06:56:27;;;;;;;25.60;9.15;;;;;;;-0.74;72.61;99041.03;5003959;28;20061;-48
2024/02/12 06:58:54;;;;;;;20.38;7.60;;;;;;;-0.79;72.60;99034.22;5007336;28;20041;-54
2024/02/12 07:01:20;;;;;;;17.65;7.30;;;;;;;-0.78;72.83;99033.34;5006068;28;20151;-52
2024/02/12 07:03:46;;;;;;;20.75;8.35;;;;;;;-1.03;72.61;98997.63;5006272;28;20584;-51
2024/02/12 07:06:12;;;;;;;19.58;7.97;;;;;;;-0.82;72.62;99032.50;4988886;28;20153;-51
2024/02/12 07:08:41;;;;;;;20.98;8.10;;;;;;;-0.80;73.08;99028.25;4988159;28;20092;-51
2024/02/12 07:11:08;;;;;;;20.00;8.05;;;;;;;-0.99;72.75;98972.94;4997974;28;20069;-53
2024/02/12 07:13:34;;;;;;;20.35;7.10;;;;;;;-0.61;73.02;99006.97;5006148;28;20045;-50
2024/02/12 07:16:00;;;;;;;21.48;8.38;;;;;;;-0.74;72.67;98979.78;4997748;28;20104;-51
2024/02/12 07:18:26;;;;;;;19.23;7.82;;;;;;;-0.61;72.29;99017.19;5006540;28;20076;-52
2024/02/12 07:20:52;;;;;;;18.08;7.30;;;;;;;-0.70;72.67;99017.19;5006876;28;20084;-53
2024/02/12 07:23:17;;;;;;;18.52;7.88;;;;;;;-0.81;72.74;98980.63;5005420;28;20038;-50
2024/02/12 07:25:44;;;;;;;24.75;9.38;;;;;;;-0.60;72.70;99006.13;5002935;28;20046;-47
2024/02/12 07:28:11;;;;;;;19.98;7.15;;;;;;;-0.73;72.46;98980.63;4977780;28;20145;-49
2024/02/12 07:30:39;;;;;;;16.67;6.78;;;;;;;-0.48;72.62;99006.13;4969659;28;20128;-56
2024/02/12 07:33:05;;;;;;;20.35;7.97;;;;;;;-0.58;72.32;98978.91;4985485;28;20045;-50
2024/02/12 07:35:32;;;;;;;19.50;7.63;;;;;;;-0.61;72.45;98991.66;4985454;28;20533;-49
2024/02/12 07:37:58;;;;;;;23.27;8.23;;;;;;;-0.93;72.59;98965.31;4986939;28;20129;-50
2024/02/12 07:40:24;;;;;;;18.90;7.75;;;;;;;-0.73;73.05;98998.50;4986711;28;20042;-51
2024/02/12 07:42:52;;;;;;;17.00;7.22;;;;;;;-0.71;72.88;98996.75;4986857;28;20537;-52
2024/02/12 07:45:19;;;;;;;22.00;8.10;;;;;;;-0.63;72.97;98998.44;4980799;28;20488;-50
2024/02/12 07:47:45;;;;;;;21.50;8.43;;;;;;;-0.69;72.94;99000.19;5005057;28;20421;-52
2024/02/12 07:50:12;;;;;;;18.45;7.50;;;;;;;-0.73;73.20;98993.38;4984625;28;20046;-51
2024/02/12 07:52:40;;;;;;;20.98;8.23;;;;;;;-0.81;73.31;98972.09;4972123;28;20096;-51
2024/02/12 07:55:09;;;;;;;18.58;7.35;;;;;;;-0.50;73.07;98995.06;5003893;28;20034;-53
2024/02/12 07:57:49;;;;;;;24.13;7.75;;;;;;;-0.42;72.64;98995.06;5005577;28;20469;-54
2024/02/12 08:00:16;;;;;;;20.83;7.50;;;;;;;-0.46;72.91;98999.28;5003128;28;20044;-51
2024/02/12 08:02:45;;;;;;;20.10;7.68;;;;;;;-0.77;72.84;98922.75;4992170;28;20109;-50
2024/02/12 08:05:12;;;;;;;20.77;7.55;;;;;;;-0.25;73.13;99010.31;4990627;28;20528;-51
2024/02/12 08:07:38;;;;;;;17.67;7.47;;;;;;;-0.22;72.67;98995.00;4999503;28;20227;-52
2024/02/12 08:10:04;;;;;;;20.23;8.27;;;;;;;-0.21;72.53;98991.59;4987861;28;20584;-56
2024/02/12 08:12:31;;;;;;;19.95;7.97;;;;;;;-0.39;72.32;98963.53;4991643;28;20042;-52
2024/02/12 08:14:57;;;;;;;17.02;7.45;;;;;;;-0.37;72.75;99000.16;4988521;28;20421;-49
2024/02/12 08:17:27;;;;;;;18.50;7.90;;;;;;;-0.57;72.63;98966.97;4991051;28;20057;-51
2024/02/12 08:19:56;;;;;;;17.05;7.63;;;;;;;-0.53;73.45;98948.25;4991288;28;20053;-55
2024/02/12 08:22:22;;;;;;;22.85;8.15;;;;;;;0.02;73.24;98987.25;4954326;28;20410;-46
2024/02/12 08:24:49;;;;;;;18.80;8.15;;;;;;;0.08;72.72;98989.81;4987144;28;20514;-55
2024/02/12 08:27:16;;;;;;;14.48;5.35;;;;;;;0.12;72.27;98993.19;4978320;28;20141;-49
2024/02/12 08:29:42;;;;;;;18.52;7.22;;;;;;;0.02;72.44;99006.84;4989158;28;20588;-48
2024/02/12 08:32:08;;;;;;;16.77;6.68;;;;;;;-0.16;72.77;99000.09;4988164;28;20815;-51
2024/02/12 08:34:38;;;;;;;18.45;7.95;;;;;;;-0.19;73.02;98995.00;4998649;28;20046;-53
2024/02/12 08:37:04;;;;;;;13.32;5.38;;;;;;;-0.27;72.84;98996.72;4994516;28;20046;-47
2024/02/12 08:39:30;;;;;;;15.15;6.32;;;;;;;-0.30;73.24;99006.94;4971397;28;20056;-50
2024/02/12 08:41:56;;;;;;;17.55;6.03;;;;;;;-0.36;73.27;98999.28;4987782;28;20065;-49
2024/02/12 08:44:22;;;;;;;13.90;6.75;;;;;;;-0.36;73.41;99001.81;4967168;28;20429;-49
2024/02/12 08:46:48;;;;;;;15.57;6.25;;;;;;;-0.25;73.53;99000.97;4984201;28;20038;-49
2024/02/12 08:49:14;;;;;;;15.25;6.10;;;;;;;-0.31;73.69;98998.41;4985695;28;20042;-50
2024/02/12 08:51:42;;;;;;;16.17;6.35;;;;;;;-0.13;73.78;99003.50;4987958;28;20442;-53
2024/02/12 08:54:07;;;;;;;15.05;6.25;;;;;;;-0.18;73.38;98987.31;4984533;28;20093;-51
2024/02/12 08:56:37;;;;;;;12.88;4.28;;;;;;;-0.04;73.12;98989.84;4989100;28;20046;-49
2024/02/12 08:59:06;;;;;;;11.63;5.60;;;;;;;-0.06;72.80;98989.00;5007708;28;20152;-53
2024/02/12 09:01:33;;;;;;;11.32;4.97;;;;;;;-0.02;73.40;98995.78;4988107;28;20803;-52
2024/02/12 09:04:13;;;;;;;13.75;4.55;;;;;;;-0.54;73.11;98926.13;4966056;28;20037;-49
2024/02/12 09:06:39;;;;;;;14.27;4.88;;;;;;;-0.25;73.79;98983.06;4992565;28;20046;-47
2024/02/12 09:09:06;;;;;;;14.98;6.05;;;;;;;-0.23;74.14;98983.94;4977509;28;20061;-52
2024/02/12 09:11:32;;;;;;;11.40;4.88;;;;;;;-0.17;74.32;98983.94;4971147;28;20038;-50
2024/02/12 09:13:58;;;;;;;14.93;5.35;;;;;;;-0.13;74.57;98944.75;4993175;28;20044;-50
2024/02/12 09:16:25;;;;;;;11.43;4.65;;;;;;;0.15;73.84;98973.59;4999538;28;20054;-50
2024/02/12 09:18:52;;;;;;;9.82;4.68;;;;;;;0.05;73.76;98971.94;4998165;28;20042;-52
2024/02/12 09:21:17;;;;;;;10.32;4.65;;;;;;;0.02;74.07;98976.19;4993384;28;20057;-54
2024/02/12 09:23:43;;;;;;;14.00;5.65;;;;;;;-0.04;74.16;98969.38;4994303;28;20552;-49
2024/02/12 09:26:10;;;;;;;11.93;5.40;;;;;;;-0.24;74.07;98905.63;4994871;28;20045;-52
2024/02/12 09:28:38;;;;;;;13.48;4.85;;;;;;;0.26;73.26;98956.47;4997814;28;20112;-51
2024/02/12 09:31:04;;;;;;;9.35;4.65;;;;;;;0.15;73.27;98959.97;4992915;28;20042;-50
2024/02/12 09:33:31;;;;;;;10.80;5.60;;;;;;;0.10;73.91;98949.78;4999885;28;20045;-50
2024/02/12 09:35:57;;;;;;;10.40;4.63;;;;;;;0.24;74.39;98947.13;5004170;28;20049;-51
2024/02/12 09:38:23;;;;;;;11.48;5.22;;;;;;;0.45;73.93;98943.63;4979987;28;20049;-52
2024/02/12 09:40:51;;;;;;;11.82;5.22;;;;;;;0.33;73.32;98940.25;5001483;28;20497;-52
2024/02/12 09:43:21;;;;;;;20.15;6.60;;;;;;;0.30;73.43;98935.19;5001312;28;20152;-52
2024/02/12 09:45:49;;;;;;;15.55;5.45;;;;;;;0.51;74.00;98944.44;5000149;28;20038;-51
2024/02/12 09:48:15;;;;;;;15.02;5.55;;;;;;;0.40;73.66;98900.19;4996971;28;20049;-49
2024/02/12 09:50:46;;;;;;;10.52;4.80;;;;;;;0.76;73.35;98933.19;4981436;28;20034;-52
2024/02/12 09:53:19;;;;;;;10.88;5.15;;;;;;;0.69;72.99;98925.53;5007314;28;20045;-50
2024/02/12 09:55:48;;;;;;;10.77;4.25;;;;;;;0.70;72.64;98925.53;4999284;28;20041;-51
2024/02/12 09:58:18;;;;;;;;;;;;;;;0.47;72.74;98921.47;4979479;28;20033;-49
2024/02/12 10:00:45;;;;;;;9.98;4.20;;;;;;;0.44;72.86;98917.19;4998189;28;20120;-49
2024/02/12 10:03:31;;;;;;;10.18;4.53;;;;;;;0.73;72.75;98917.00;5001589;28;20050;-47
2024/02/12 10:06:17;;;;;;;14.05;4.10;;;;;;;0.57;72.92;98872.81;5001172;28;20042;-47
2024/02/12 10:09:07;;;;;;;11.05;4.38;;;;;;;0.87;72.59;98911.78;4995642;28;20052;-53
2024/02/12 10:11:54;;;;;;;9.90;3.85;;;;;;;0.87;72.50;98910.06;5001654;28;20054;-52
2024/02/12 10:14:41;;;;;;;8.00;3.45;;;;;;;0.95;72.54;98903.16;4998008;28;20740;-46
2024/02/12 10:17:27;;;;;;;6.65;3.22;;;;;;;0.96;72.00;98904.88;4994865;28;20466;-51
2024/02/12 10:20:13;;;;;;;8.25;4.35;;;;;;;0.77;72.09;98891.41;4997518;28;20146;-49
2024/02/12 10:22:59;;;;;;;9.00;3.72;;;;;;;0.67;71.87;98850.56;4992597;28;20081;-50
2024/02/12 10:25:50;;;;;;;9.32;4.47;;;;;;;0.97;72.28;98895.50;5004841;28;20054;-54
2024/02/12 10:28:37;;;;;;;9.25;4.45;;;;;;;1.04;72.12;98887.75;4980048;28;20046;-52
2024/02/12 10:31:23;;;;;;;14.18;6.03;;;;;;;1.01;72.03;98861.31;4984158;28;20050;-49
2024/02/12 10:34:09;;;;;;;11.35;4.88;;;;;;;1.20;72.07;98885.91;4981211;28;20042;-49
2024/02/12 10:36:57;;;;;;;10.48;4.72;;;;;;;1.28;71.86;98887.50;4981289;28;20081;-52
2024/02/12 10:39:45;;;;;;;12.35;4.78;;;;;;;1.48;72.11;98889.00;5006247;28;20407;-50
2024/02/12 10:42:41;;;;;;;9.82;4.45;;;;;;;1.36;71.68;98884.03;4983898;28;20088;-53
2024/02/12 10:45:28;;;;;;;12.63;6.03;;;;;;;1.22;71.54;98853.44;4996292;28;20053;-49
2024/02/12 10:48:15;;;;;;;12.88;5.97;;;;;;;1.39;71.80;98873.75;4991355;28;20530;-51
2024/02/12 10:51:02;;;;;;;14.85;6.68;;;;;;;1.62;71.91;98874.34;4993200;28;20540;-52
2024/02/12 10:53:49;;;;;;;18.05;7.28;;;;;;;1.73;71.90;98869.91;4997839;28;20103;-47
2024/02/12 10:56:36;;;;;;;15.38;7.25;;;;;;;1.77;71.66;98873.31;5005895;28;20092;-48
2024/02/12 10:59:02;;;;;;;17.33;7.93;;;;;;;1.75;71.64;98870.75;5005702;28;20060;-50
2024/02/12 11:01:31;;;;;;;26.60;8.75;;;;;;;1.90;71.78;98873.13;5002562;28;20053;-51
2024/02/12 11:03:59;;;;;;;16.50;8.20;;;;;;;1.96;71.42;98867.09;5001134;28;20073;-52
2024/02/12 11:06:27;;;;;;;25.75;8.95;;;;;;;2.00;71.36;98866.16;4982290;28;20092;-48
2024/02/12 11:08:54;;;;;;;14.20;7.07;;;;;;;2.05;70.79;98864.38;4997056;28;20096;-48
2024/02/12 11:11:30;;;;;;;19.80;7.53;;;;;;;2.02;71.18;98860.16;5000958;28;20136;-46
2024/02/12 11:14:04;;;;;;;19.73;7.97;;;;;;;1.96;70.89;98857.69;4994516;28;20437;-49
2024/02/12 11:16:32;;;;;;;14.90;7.40;;;;;;;2.05;71.16;98860.13;4969673;28;20594;-53
2024/02/12 11:18:59;;;;;;;14.55;7.10;;;;;;;1.53;70.98;98795.88;4995993;28;20042;-53
2024/02/12 11:21:30;;;;;;;16.48;7.50;;;;;;;2.02;70.99;98860.16;5000278;28;20037;-47
2024/02/12 11:24:07;;;;;;;15.50;6.80;;;;;;;1.98;70.52;98861.09;4992869;28;20045;-50
2024/02/12 11:26:38;;;;;;;13.95;6.47;;;;;;;1.94;70.96;98861.13;4981095;28;20608;-50
2024/02/12 11:29:07;;;;;;;17.35;6.78;;;;;;;2.07;71.30;98854.97;4973206;28;20096;-49
2024/02/12 11:31:35;;;;;;;20.85;9.13;;;;;;;2.21;71.15;98857.34;4989697;28;20129;-47
2024/02/12 11:34:01;;;;;;;15.95;7.75;;;;;;;2.09;70.85;98819.94;4975275;28;20045;-48
2024/02/12 11:36:29;;;;;;;15.23;7.93;;;;;;;2.26;70.87;98847.88;4987311;28;20050;-51
2024/02/12 11:38:55;;;;;;;18.70;8.45;;;;;;;2.31;70.79;98844.38;4971273;28;20068;-47
2024/02/12 11:41:21;;;;;;;18.02;7.80;;;;;;;2.12;70.85;98810.47;4984329;28;20046;-48
2024/02/12 11:43:47;;;;;;;16.85;7.85;;;;;;;2.33;70.68;98842.63;4989922;28;20061;-50
2024/02/12 11:46:15;;;;;;;16.40;7.30;;;;;;;2.36;70.31;98834.88;4985377;28;20038;-49
2024/02/12 11:48:42;;;;;;;16.58;7.90;;;;;;;2.29;70.46;98842.72;4993852;28;20050;-51
2024/02/12 11:51:09;;;;;;;15.35;7.40;;;;;;;2.31;70.48;98844.38;4986851;28;20529;-47